sensor_id;sensor_type;location;lat;lon;timestamp;temperature;humidity
820;DHT22;392;48.838;2.322;2023-11-18T00:01:06;11.70;61.70
820;DHT22;392;48.838;2.322;2023-11-18T00:03:34;11.70;62.20
820;DHT22;392;48.838;2.322;2023-11-18T00:06:01;11.60;61.60
820;DHT22;392;48.838;2.322;2023-11-18T00:08:29;11.60;62.10
820;DHT22;392;48.838;2.322;2023-11-18T00:10:56;11.60;62.60
820;DHT22;392;48.838;2.322;2023-11-18T00:13:25;11.60;62.90
820;DHT22;392;48.838;2.322;2023-11-18T00:15:53;11.60;63.30
820;DHT22;392;48.838;2.322;2023-11-18T00:18:21;11.60;63.10
820;DHT22;392;48.838;2.322;2023-11-18T00:20:49;11.60;62.60
820;DHT22;392;48.838;2.322;2023-11-18T00:23:17;11.60;62.50
820;DHT22;392;48.838;2.322;2023-11-18T00:25:44;11.60;62.80
820;DHT22;392;48.838;2.322;2023-11-18T00:28:11;11.60;63.40
820;DHT22;392;48.838;2.322;2023-11-18T00:30:40;11.50;63.10
820;DHT22;392;48.838;2.322;2023-11-18T00:33:07;11.50;63.70
820;DHT22;392;48.838;2.322;2023-11-18T00:35:34;11.50;64.40
820;DHT22;392;48.838;2.322;2023-11-18T00:38:01;11.50;64.90
820;DHT22;392;48.838;2.322;2023-11-18T00:40:29;11.50;65.40
820;DHT22;392;48.838;2.322;2023-11-18T00:42:56;11.50;65.70
820;DHT22;392;48.838;2.322;2023-11-18T00:45:23;11.40;65.70
820;DHT22;392;48.838;2.322;2023-11-18T00:47:52;11.50;65.60
820;DHT22;392;48.838;2.322;2023-11-18T00:50:20;11.50;65.50
820;DHT22;392;48.838;2.322;2023-11-18T00:52:47;11.50;65.30
820;DHT22;392;48.838;2.322;2023-11-18T00:55:15;11.50;65.30
820;DHT22;392;48.838;2.322;2023-11-18T00:57:44;11.50;65.50
820;DHT22;392;48.838;2.322;2023-11-18T01:00:12;11.50;65.40
820;DHT22;392;48.838;2.322;2023-11-18T01:02:42;11.50;65.40
820;DHT22;392;48.838;2.322;2023-11-18T01:05:11;11.40;65.60
820;DHT22;392;48.838;2.322;2023-11-18T01:07:39;11.40;66.10
820;DHT22;392;48.838;2.322;2023-11-18T01:10:07;11.40;66.70
820;DHT22;392;48.838;2.322;2023-11-18T01:12:35;11.30;67.20
820;DHT22;392;48.838;2.322;2023-11-18T01:15:04;11.30;67.70
820;DHT22;392;48.838;2.322;2023-11-18T01:17:32;11.30;68.20
820;DHT22;392;48.838;2.322;2023-11-18T01:19:59;11.30;68.70
820;DHT22;392;48.838;2.322;2023-11-18T01:22:38;11.30;68.70
820;DHT22;392;48.838;2.322;2023-11-18T01:25:08;11.30;69.20
820;DHT22;392;48.838;2.322;2023-11-18T01:27:35;11.30;69.70
820;DHT22;392;48.838;2.322;2023-11-18T01:30:03;11.40;69.80
820;DHT22;392;48.838;2.322;2023-11-18T01:32:31;11.40;69.70
820;DHT22;392;48.838;2.322;2023-11-18T01:34:58;11.40;69.40
820;DHT22;392;48.838;2.322;2023-11-18T01:37:25;11.40;69.40
820;DHT22;392;48.838;2.322;2023-11-18T01:39:53;11.40;69.60
820;DHT22;392;48.838;2.322;2023-11-18T01:42:21;11.40;69.40
820;DHT22;392;48.838;2.322;2023-11-18T01:44:48;11.40;68.80
820;DHT22;392;48.838;2.322;2023-11-18T01:47:15;11.40;68.80
820;DHT22;392;48.838;2.322;2023-11-18T01:49:42;11.40;68.80
820;DHT22;392;48.838;2.322;2023-11-18T01:52:10;11.40;69.60
820;DHT22;392;48.838;2.322;2023-11-18T01:54:38;11.40;69.30
820;DHT22;392;48.838;2.322;2023-11-18T01:57:07;11.40;68.80
820;DHT22;392;48.838;2.322;2023-11-18T01:59:35;11.40;68.80
820;DHT22;392;48.838;2.322;2023-11-18T02:02:04;11.40;68.70
820;DHT22;392;48.838;2.322;2023-11-18T02:04:31;11.30;68.50
820;DHT22;392;48.838;2.322;2023-11-18T02:06:59;11.30;68.70
820;DHT22;392;48.838;2.322;2023-11-18T02:09:30;11.20;68.60
820;DHT22;392;48.838;2.322;2023-11-18T02:12:04;11.20;69.10
820;DHT22;392;48.838;2.322;2023-11-18T02:14:39;11.20;69.60
820;DHT22;392;48.838;2.322;2023-11-18T02:17:09;11.10;70.20
820;DHT22;392;48.838;2.322;2023-11-18T02:19:39;11.20;71.20
820;DHT22;392;48.838;2.322;2023-11-18T02:22:07;11.20;71.60
820;DHT22;392;48.838;2.322;2023-11-18T02:24:37;11.20;71.50
820;DHT22;392;48.838;2.322;2023-11-18T02:27:08;11.20;71.70
820;DHT22;392;48.838;2.322;2023-11-18T02:29:39;11.20;71.60
820;DHT22;392;48.838;2.322;2023-11-18T02:32:13;11.20;71.80
820;DHT22;392;48.838;2.322;2023-11-18T02:34:51;11.20;71.80
820;DHT22;392;48.838;2.322;2023-11-18T02:37:24;11.20;71.40
820;DHT22;392;48.838;2.322;2023-11-18T02:39:53;11.20;71.20
820;DHT22;392;48.838;2.322;2023-11-18T02:42:27;11.20;71.00
820;DHT22;392;48.838;2.322;2023-11-18T02:44:55;11.20;71.30
820;DHT22;392;48.838;2.322;2023-11-18T02:47:25;11.10;71.40
820;DHT22;392;48.838;2.322;2023-11-18T02:49:56;11.10;71.30
820;DHT22;392;48.838;2.322;2023-11-18T02:52:31;11.10;71.30
820;DHT22;392;48.838;2.322;2023-11-18T02:54:58;11.10;71.30
820;DHT22;392;48.838;2.322;2023-11-18T02:57:27;11.10;71.70
820;DHT22;392;48.838;2.322;2023-11-18T02:59:54;11.10;71.90
820;DHT22;392;48.838;2.322;2023-11-18T03:02:21;11.00;72.20
820;DHT22;392;48.838;2.322;2023-11-18T03:04:48;11.00;72.90
820;DHT22;392;48.838;2.322;2023-11-18T03:07:16;11.00;72.90
820;DHT22;392;48.838;2.322;2023-11-18T03:09:43;11.00;72.90
820;DHT22;392;48.838;2.322;2023-11-18T03:12:12;11.00;73.10
820;DHT22;392;48.838;2.322;2023-11-18T03:14:41;11.00;73.10
820;DHT22;392;48.838;2.322;2023-11-18T03:17:08;11.00;73.50
820;DHT22;392;48.838;2.322;2023-11-18T03:19:35;11.00;73.80
820;DHT22;392;48.838;2.322;2023-11-18T03:22:03;11.00;74.10
820;DHT22;392;48.838;2.322;2023-11-18T03:24:31;11.00;74.10
820;DHT22;392;48.838;2.322;2023-11-18T03:26:58;11.00;74.40
820;DHT22;392;48.838;2.322;2023-11-18T03:29:25;11.00;74.20
820;DHT22;392;48.838;2.322;2023-11-18T03:31:54;11.00;74.30
820;DHT22;392;48.838;2.322;2023-11-18T03:34:21;11.00;74.50
820;DHT22;392;48.838;2.322;2023-11-18T03:36:48;11.10;74.40
820;DHT22;392;48.838;2.322;2023-11-18T03:39:17;11.10;74.30
820;DHT22;392;48.838;2.322;2023-11-18T03:41:44;11.00;73.40
820;DHT22;392;48.838;2.322;2023-11-18T03:44:12;11.00;73.00
820;DHT22;392;48.838;2.322;2023-11-18T03:46:38;11.00;72.90
820;DHT22;392;48.838;2.322;2023-11-18T03:49:08;10.90;72.80
820;DHT22;392;48.838;2.322;2023-11-18T03:51:35;10.90;73.30
820;DHT22;392;48.838;2.322;2023-11-18T03:54:03;10.90;74.30
820;DHT22;392;48.838;2.322;2023-11-18T03:56:34;10.90;74.60
820;DHT22;392;48.838;2.322;2023-11-18T03:59:01;10.90;74.70
820;DHT22;392;48.838;2.322;2023-11-18T04:01:30;10.90;75.00
820;DHT22;392;48.838;2.322;2023-11-18T04:03:58;10.90;75.10
820;DHT22;392;48.838;2.322;2023-11-18T04:06:26;10.90;75.20
820;DHT22;392;48.838;2.322;2023-11-18T04:08:54;10.90;75.40
820;DHT22;392;48.838;2.322;2023-11-18T04:11:21;10.90;75.10
820;DHT22;392;48.838;2.322;2023-11-18T04:13:49;10.90;75.10
820;DHT22;392;48.838;2.322;2023-11-18T04:16:16;10.90;75.60
820;DHT22;392;48.838;2.322;2023-11-18T04:18:45;10.90;75.30
820;DHT22;392;48.838;2.322;2023-11-18T04:21:13;10.90;75.30
820;DHT22;392;48.838;2.322;2023-11-18T04:23:42;10.90;75.30
820;DHT22;392;48.838;2.322;2023-11-18T04:26:12;11.00;75.60
820;DHT22;392;48.838;2.322;2023-11-18T04:28:40;11.00;75.60
820;DHT22;392;48.838;2.322;2023-11-18T04:31:07;11.00;75.10
820;DHT22;392;48.838;2.322;2023-11-18T04:33:34;11.00;74.90
820;DHT22;392;48.838;2.322;2023-11-18T04:36:01;11.00;75.10
820;DHT22;392;48.838;2.322;2023-11-18T04:38:31;11.00;74.90
820;DHT22;392;48.838;2.322;2023-11-18T04:41:00;11.00;74.90
820;DHT22;392;48.838;2.322;2023-11-18T04:43:29;11.00;74.30
820;DHT22;392;48.838;2.322;2023-11-18T04:45:56;11.00;74.20
820;DHT22;392;48.838;2.322;2023-11-18T04:48:24;11.00;74.60
820;DHT22;392;48.838;2.322;2023-11-18T04:50:51;11.00;74.90
820;DHT22;392;48.838;2.322;2023-11-18T04:53:18;11.00;74.80
820;DHT22;392;48.838;2.322;2023-11-18T04:55:45;11.10;74.70
820;DHT22;392;48.838;2.322;2023-11-18T04:58:13;11.10;74.50
820;DHT22;392;48.838;2.322;2023-11-18T05:00:41;11.10;74.00
820;DHT22;392;48.838;2.322;2023-11-18T05:03:09;11.10;74.10
820;DHT22;392;48.838;2.322;2023-11-18T05:05:36;11.10;74.20
820;DHT22;392;48.838;2.322;2023-11-18T05:08:04;11.10;74.10
820;DHT22;392;48.838;2.322;2023-11-18T05:10:34;11.00;74.30
820;DHT22;392;48.838;2.322;2023-11-18T05:13:02;11.00;74.80
820;DHT22;392;48.838;2.322;2023-11-18T05:15:30;11.00;75.30
820;DHT22;392;48.838;2.322;2023-11-18T05:17:58;11.00;75.90
820;DHT22;392;48.838;2.322;2023-11-18T05:20:25;10.90;76.70
820;DHT22;392;48.838;2.322;2023-11-18T05:22:53;10.90;77.20
820;DHT22;392;48.838;2.322;2023-11-18T05:25:20;10.90;77.30
820;DHT22;392;48.838;2.322;2023-11-18T05:27:48;10.80;78.00
820;DHT22;392;48.838;2.322;2023-11-18T05:30:15;10.80;78.70
820;DHT22;392;48.838;2.322;2023-11-18T05:32:45;10.80;79.30
820;DHT22;392;48.838;2.322;2023-11-18T05:35:12;10.80;79.80
820;DHT22;392;48.838;2.322;2023-11-18T05:37:39;10.80;80.50
820;DHT22;392;48.838;2.322;2023-11-18T05:40:07;10.70;81.40
820;DHT22;392;48.838;2.322;2023-11-18T05:42:37;10.80;82.00
820;DHT22;392;48.838;2.322;2023-11-18T05:45:07;10.70;81.70
820;DHT22;392;48.838;2.322;2023-11-18T05:47:44;10.70;82.30
820;DHT22;392;48.838;2.322;2023-11-18T05:50:12;10.70;82.70
820;DHT22;392;48.838;2.322;2023-11-18T05:52:40;10.70;82.10
820;DHT22;392;48.838;2.322;2023-11-18T05:55:08;10.70;82.00
820;DHT22;392;48.838;2.322;2023-11-18T05:57:35;10.60;82.20
820;DHT22;392;48.838;2.322;2023-11-18T06:00:03;10.60;82.70
820;DHT22;392;48.838;2.322;2023-11-18T06:02:38;10.60;83.30
820;DHT22;392;48.838;2.322;2023-11-18T06:05:08;10.50;83.50
820;DHT22;392;48.838;2.322;2023-11-18T06:07:38;10.50;84.20
820;DHT22;392;48.838;2.322;2023-11-18T06:10:06;10.50;83.80
820;DHT22;392;48.838;2.322;2023-11-18T06:12:34;10.50;84.10
820;DHT22;392;48.838;2.322;2023-11-18T06:15:03;10.40;84.30
820;DHT22;392;48.838;2.322;2023-11-18T06:17:31;10.40;84.80
820;DHT22;392;48.838;2.322;2023-11-18T06:19:58;10.40;85.50
820;DHT22;392;48.838;2.322;2023-11-18T06:22:26;10.30;85.40
820;DHT22;392;48.838;2.322;2023-11-18T06:24:54;10.30;85.80
820;DHT22;392;48.838;2.322;2023-11-18T06:27:22;10.30;86.20
820;DHT22;392;48.838;2.322;2023-11-18T06:29:50;10.30;86.60
820;DHT22;392;48.838;2.322;2023-11-18T06:32:20;10.30;86.90
820;DHT22;392;48.838;2.322;2023-11-18T06:34:47;10.30;87.40
820;DHT22;392;48.838;2.322;2023-11-18T06:37:15;10.30;87.40
820;DHT22;392;48.838;2.322;2023-11-18T06:39:44;10.30;87.80
820;DHT22;392;48.838;2.322;2023-11-18T06:42:13;10.30;88.10
820;DHT22;392;48.838;2.322;2023-11-18T06:44:40;10.30;88.10
820;DHT22;392;48.838;2.322;2023-11-18T06:47:07;10.30;88.10
820;DHT22;392;48.838;2.322;2023-11-18T06:49:34;10.30;88.10
820;DHT22;392;48.838;2.322;2023-11-18T06:52:03;10.30;88.00
820;DHT22;392;48.838;2.322;2023-11-18T06:54:30;10.30;88.50
820;DHT22;392;48.838;2.322;2023-11-18T06:57:00;10.30;89.10
820;DHT22;392;48.838;2.322;2023-11-18T06:59:27;10.30;89.40
820;DHT22;392;48.838;2.322;2023-11-18T07:01:54;10.30;88.90
820;DHT22;392;48.838;2.322;2023-11-18T07:04:21;10.30;88.20
820;DHT22;392;48.838;2.322;2023-11-18T07:06:49;10.30;88.40
820;DHT22;392;48.838;2.322;2023-11-18T07:09:16;10.20;88.60
820;DHT22;392;48.838;2.322;2023-11-18T07:11:46;10.20;88.90
820;DHT22;392;48.838;2.322;2023-11-18T07:14:15;10.20;89.50
820;DHT22;392;48.838;2.322;2023-11-18T07:16:43;10.30;89.60
820;DHT22;392;48.838;2.322;2023-11-18T07:19:10;10.20;89.50
820;DHT22;392;48.838;2.322;2023-11-18T07:21:45;10.30;89.60
820;DHT22;392;48.838;2.322;2023-11-18T07:24:13;10.20;89.50
820;DHT22;392;48.838;2.322;2023-11-18T07:26:40;10.20;89.70
820;DHT22;392;48.838;2.322;2023-11-18T07:29:07;10.20;90.10
820;DHT22;392;48.838;2.322;2023-11-18T07:31:35;10.20;89.90
820;DHT22;392;48.838;2.322;2023-11-18T07:34:03;10.20;90.00
820;DHT22;392;48.838;2.322;2023-11-18T07:36:31;10.20;90.20
820;DHT22;392;48.838;2.322;2023-11-18T07:38:58;10.20;90.40
820;DHT22;392;48.838;2.322;2023-11-18T07:41:26;10.20;90.60
820;DHT22;392;48.838;2.322;2023-11-18T07:43:54;10.20;90.80
820;DHT22;392;48.838;2.322;2023-11-18T07:46:21;10.20;91.00
820;DHT22;392;48.838;2.322;2023-11-18T07:48:50;10.20;90.90
820;DHT22;392;48.838;2.322;2023-11-18T07:51:18;10.30;91.00
820;DHT22;392;48.838;2.322;2023-11-18T07:53:47;10.30;91.00
820;DHT22;392;48.838;2.322;2023-11-18T07:56:14;10.30;91.10
820;DHT22;392;48.838;2.322;2023-11-18T07:58:42;10.30;91.10
820;DHT22;392;48.838;2.322;2023-11-18T08:01:11;10.30;91.00
820;DHT22;392;48.838;2.322;2023-11-18T08:03:38;10.20;91.20
820;DHT22;392;48.838;2.322;2023-11-18T08:06:08;10.20;91.30
820;DHT22;392;48.838;2.322;2023-11-18T08:08:38;10.20;91.30
820;DHT22;392;48.838;2.322;2023-11-18T08:11:05;10.20;91.40
820;DHT22;392;48.838;2.322;2023-11-18T08:13:33;10.20;91.60
820;DHT22;392;48.838;2.322;2023-11-18T08:16:00;10.20;91.70
820;DHT22;392;48.838;2.322;2023-11-18T08:18:27;10.20;91.80
820;DHT22;392;48.838;2.322;2023-11-18T08:20:57;10.20;91.90
820;DHT22;392;48.838;2.322;2023-11-18T08:23:27;10.20;92.00
820;DHT22;392;48.838;2.322;2023-11-18T08:25:55;10.20;92.20
820;DHT22;392;48.838;2.322;2023-11-18T08:28:22;10.30;92.50
820;DHT22;392;48.838;2.322;2023-11-18T08:30:49;10.30;92.60
820;DHT22;392;48.838;2.322;2023-11-18T08:33:19;10.30;92.70
820;DHT22;392;48.838;2.322;2023-11-18T08:35:46;10.40;92.70
820;DHT22;392;48.838;2.322;2023-11-18T08:38:13;10.40;92.70
820;DHT22;392;48.838;2.322;2023-11-18T08:40:42;10.40;92.90
820;DHT22;392;48.838;2.322;2023-11-18T08:43:10;10.40;92.90
820;DHT22;392;48.838;2.322;2023-11-18T08:45:39;10.40;92.90
820;DHT22;392;48.838;2.322;2023-11-18T08:48:07;10.40;92.90
820;DHT22;392;48.838;2.322;2023-11-18T08:50:35;10.40;93.10
820;DHT22;392;48.838;2.322;2023-11-18T08:53:05;10.50;93.20
820;DHT22;392;48.838;2.322;2023-11-18T08:55:35;10.50;93.30
820;DHT22;392;48.838;2.322;2023-11-18T08:58:08;10.50;93.10
820;DHT22;392;48.838;2.322;2023-11-18T09:00:45;10.60;93.20
820;DHT22;392;48.838;2.322;2023-11-18T09:03:15;10.60;93.30
820;DHT22;392;48.838;2.322;2023-11-18T09:05:52;10.60;93.40
820;DHT22;392;48.838;2.322;2023-11-18T09:08:24;10.70;93.20
820;DHT22;392;48.838;2.322;2023-11-18T09:10:53;10.70;93.40
820;DHT22;392;48.838;2.322;2023-11-18T09:13:23;10.80;93.40
820;DHT22;392;48.838;2.322;2023-11-18T09:15:56;10.80;93.20
820;DHT22;392;48.838;2.322;2023-11-18T09:18:23;10.80;93.20
820;DHT22;392;48.838;2.322;2023-11-18T09:20:52;10.80;93.10
820;DHT22;392;48.838;2.322;2023-11-18T09:23:21;10.80;93.10
820;DHT22;392;48.838;2.322;2023-11-18T09:25:51;10.90;93.00
820;DHT22;392;48.838;2.322;2023-11-18T09:28:19;10.90;92.90
820;DHT22;392;48.838;2.322;2023-11-18T09:30:48;10.90;92.90
820;DHT22;392;48.838;2.322;2023-11-18T09:33:20;10.90;92.70
820;DHT22;392;48.838;2.322;2023-11-18T09:35:58;10.90;92.60
820;DHT22;392;48.838;2.322;2023-11-18T09:38:27;10.90;92.50
820;DHT22;392;48.838;2.322;2023-11-18T09:40:55;10.90;92.50
820;DHT22;392;48.838;2.322;2023-11-18T09:43:24;11.00;92.40
820;DHT22;392;48.838;2.322;2023-11-18T09:45:57;10.90;92.30
820;DHT22;392;48.838;2.322;2023-11-18T09:48:30;10.90;92.10
820;DHT22;392;48.838;2.322;2023-11-18T09:51:07;10.90;92.30
820;DHT22;392;48.838;2.322;2023-11-18T09:53:37;10.90;92.30
820;DHT22;392;48.838;2.322;2023-11-18T09:56:09;11.00;92.30
820;DHT22;392;48.838;2.322;2023-11-18T09:58:50;11.00;92.50
820;DHT22;392;48.838;2.322;2023-11-18T10:01:28;11.00;92.90
820;DHT22;392;48.838;2.322;2023-11-18T10:03:58;11.10;92.70
820;DHT22;392;48.838;2.322;2023-11-18T10:06:34;11.20;92.90
820;DHT22;392;48.838;2.322;2023-11-18T10:09:03;11.30;92.90
820;DHT22;392;48.838;2.322;2023-11-18T10:11:42;11.30;92.80
820;DHT22;392;48.838;2.322;2023-11-18T10:14:13;11.30;92.70
820;DHT22;392;48.838;2.322;2023-11-18T10:16:44;11.40;92.70
820;DHT22;392;48.838;2.322;2023-11-18T10:19:19;11.40;92.70
820;DHT22;392;48.838;2.322;2023-11-18T10:21:47;11.50;92.70
820;DHT22;392;48.838;2.322;2023-11-18T10:24:15;11.50;92.60
820;DHT22;392;48.838;2.322;2023-11-18T10:26:46;11.50;92.40
820;DHT22;392;48.838;2.322;2023-11-18T10:29:21;11.60;92.10
820;DHT22;392;48.838;2.322;2023-11-18T10:31:50;11.50;91.70
820;DHT22;392;48.838;2.322;2023-11-18T10:34:35;11.50;91.50
820;DHT22;392;48.838;2.322;2023-11-18T10:37:03;11.50;91.50
820;DHT22;392;48.838;2.322;2023-11-18T10:39:32;11.50;91.60
820;DHT22;392;48.838;2.322;2023-11-18T10:42:01;11.50;91.60
820;DHT22;392;48.838;2.322;2023-11-18T10:44:28;11.50;91.60
820;DHT22;392;48.838;2.322;2023-11-18T10:46:58;11.50;91.70
820;DHT22;392;48.838;2.322;2023-11-18T10:49:27;11.50;91.90
820;DHT22;392;48.838;2.322;2023-11-18T10:51:55;11.50;91.60
820;DHT22;392;48.838;2.322;2023-11-18T10:54:23;11.50;91.60
820;DHT22;392;48.838;2.322;2023-11-18T10:56:52;11.50;91.70
820;DHT22;392;48.838;2.322;2023-11-18T10:59:22;11.60;92.00
820;DHT22;392;48.838;2.322;2023-11-18T11:01:51;11.60;92.20
820;DHT22;392;48.838;2.322;2023-11-18T11:04:20;11.60;92.50
820;DHT22;392;48.838;2.322;2023-11-18T11:06:48;11.70;92.70
820;DHT22;392;48.838;2.322;2023-11-18T11:09:19;11.70;92.90
820;DHT22;392;48.838;2.322;2023-11-18T11:11:53;11.80;93.00
820;DHT22;392;48.838;2.322;2023-11-18T11:14:23;11.90;93.00
820;DHT22;392;48.838;2.322;2023-11-18T11:17:00;11.90;92.90
820;DHT22;392;48.838;2.322;2023-11-18T11:19:46;11.90;92.70
820;DHT22;392;48.838;2.322;2023-11-18T11:22:24;12.00;92.60
820;DHT22;392;48.838;2.322;2023-11-18T11:25:09;12.00;92.40
820;DHT22;392;48.838;2.322;2023-11-18T11:27:56;12.10;92.20
820;DHT22;392;48.838;2.322;2023-11-18T11:30:29;12.10;91.70
820;DHT22;392;48.838;2.322;2023-11-18T11:33:04;12.10;91.40
820;DHT22;392;48.838;2.322;2023-11-18T11:35:41;12.20;91.30
820;DHT22;392;48.838;2.322;2023-11-18T11:38:12;12.20;91.20
820;DHT22;392;48.838;2.322;2023-11-18T11:40:41;12.20;91.10
820;DHT22;392;48.838;2.322;2023-11-18T11:43:10;12.30;90.80
820;DHT22;392;48.838;2.322;2023-11-18T11:45:41;12.30;90.60
820;DHT22;392;48.838;2.322;2023-11-18T11:48:10;12.30;90.60
820;DHT22;392;48.838;2.322;2023-11-18T11:51:07;12.30;90.40
820;DHT22;392;48.838;2.322;2023-11-18T11:53:44;12.40;90.40
820;DHT22;392;48.838;2.322;2023-11-18T11:56:14;12.40;90.30
820;DHT22;392;48.838;2.322;2023-11-18T11:58:47;12.40;90.30
820;DHT22;392;48.838;2.322;2023-11-18T12:01:35;12.50;90.20
820;DHT22;392;48.838;2.322;2023-11-18T12:04:03;12.50;90.20
820;DHT22;392;48.838;2.322;2023-11-18T12:06:42;12.50;90.20
820;DHT22;392;48.838;2.322;2023-11-18T12:09:10;12.50;90.20
820;DHT22;392;48.838;2.322;2023-11-18T12:11:45;12.60;90.20
820;DHT22;392;48.838;2.322;2023-11-18T12:14:15;12.70;90.20
820;DHT22;392;48.838;2.322;2023-11-18T12:17:05;12.70;90.00
820;DHT22;392;48.838;2.322;2023-11-18T12:19:37;12.70;89.80
820;DHT22;392;48.838;2.322;2023-11-18T12:22:16;12.70;89.60
820;DHT22;392;48.838;2.322;2023-11-18T12:28:11;12.70;88.90
820;DHT22;392;48.838;2.322;2023-11-18T12:30:43;12.80;88.90
820;DHT22;392;48.838;2.322;2023-11-18T12:33:19;12.80;89.00
820;DHT22;392;48.838;2.322;2023-11-18T12:39:31;12.70;88.60
820;DHT22;392;48.838;2.322;2023-11-18T12:42:36;12.70;88.40
820;DHT22;392;48.838;2.322;2023-11-18T12:45:43;12.70;89.40
820;DHT22;392;48.838;2.322;2023-11-18T12:48:14;12.80;90.00
820;DHT22;392;48.838;2.322;2023-11-18T12:50:42;12.80;90.10
820;DHT22;392;48.838;2.322;2023-11-18T12:53:12;12.80;90.20
820;DHT22;392;48.838;2.322;2023-11-18T12:55:42;12.80;90.40
820;DHT22;392;48.838;2.322;2023-11-18T12:58:09;12.90;90.70
820;DHT22;392;48.838;2.322;2023-11-18T13:00:40;12.90;90.80
820;DHT22;392;48.838;2.322;2023-11-18T13:03:09;12.90;90.80
820;DHT22;392;48.838;2.322;2023-11-18T13:05:37;12.90;90.80
820;DHT22;392;48.838;2.322;2023-11-18T13:08:04;13.00;90.70
820;DHT22;392;48.838;2.322;2023-11-18T13:10:32;12.90;90.40
820;DHT22;392;48.838;2.322;2023-11-18T13:13:01;12.90;90.40
820;DHT22;392;48.838;2.322;2023-11-18T13:15:30;12.90;90.40
820;DHT22;392;48.838;2.322;2023-11-18T13:17:59;13.00;90.40
820;DHT22;392;48.838;2.322;2023-11-18T13:20:27;13.00;90.40
820;DHT22;392;48.838;2.322;2023-11-18T13:22:55;12.90;90.30
820;DHT22;392;48.838;2.322;2023-11-18T13:25:22;12.90;90.30
820;DHT22;392;48.838;2.322;2023-11-18T13:27:50;12.90;90.30
820;DHT22;392;48.838;2.322;2023-11-18T13:30:21;12.90;90.30
820;DHT22;392;48.838;2.322;2023-11-18T13:32:49;12.90;90.30
820;DHT22;392;48.838;2.322;2023-11-18T13:35:17;12.90;90.40
820;DHT22;392;48.838;2.322;2023-11-18T13:37:49;12.90;90.60
820;DHT22;392;48.838;2.322;2023-11-18T13:40:19;12.90;90.80
820;DHT22;392;48.838;2.322;2023-11-18T13:42:46;12.90;90.90
820;DHT22;392;48.838;2.322;2023-11-18T13:45:14;12.90;90.90
820;DHT22;392;48.838;2.322;2023-11-18T13:47:51;12.90;90.90
820;DHT22;392;48.838;2.322;2023-11-18T13:50:19;13.00;90.90
820;DHT22;392;48.838;2.322;2023-11-18T13:52:47;13.00;90.90
820;DHT22;392;48.838;2.322;2023-11-18T13:55:15;13.00;91.00
820;DHT22;392;48.838;2.322;2023-11-18T13:57:53;13.00;91.10
820;DHT22;392;48.838;2.322;2023-11-18T14:00:22;13.10;91.10
820;DHT22;392;48.838;2.322;2023-11-18T14:02:57;13.10;91.10
820;DHT22;392;48.838;2.322;2023-11-18T14:05:25;13.10;91.00
820;DHT22;392;48.838;2.322;2023-11-18T14:07:52;13.20;91.00
820;DHT22;392;48.838;2.322;2023-11-18T14:10:22;13.10;90.90
820;DHT22;392;48.838;2.322;2023-11-18T14:13:02;13.20;91.00
820;DHT22;392;48.838;2.322;2023-11-18T14:15:31;13.20;91.00
820;DHT22;392;48.838;2.322;2023-11-18T14:18:02;13.20;91.00
820;DHT22;392;48.838;2.322;2023-11-18T14:20:30;13.20;91.00
820;DHT22;392;48.838;2.322;2023-11-18T14:22:57;13.20;91.10
820;DHT22;392;48.838;2.322;2023-11-18T14:25:25;13.20;91.00
820;DHT22;392;48.838;2.322;2023-11-18T14:27:53;13.10;90.90
820;DHT22;392;48.838;2.322;2023-11-18T14:30:20;13.10;90.90
820;DHT22;392;48.838;2.322;2023-11-18T14:32:50;13.10;91.10
820;DHT22;392;48.838;2.322;2023-11-18T14:35:19;13.00;91.20
820;DHT22;392;48.838;2.322;2023-11-18T14:37:46;12.90;91.20
820;DHT22;392;48.838;2.322;2023-11-18T14:40:14;12.90;91.50
820;DHT22;392;48.838;2.322;2023-11-18T14:42:42;12.80;91.70
820;DHT22;392;48.838;2.322;2023-11-18T14:45:12;12.80;92.00
820;DHT22;392;48.838;2.322;2023-11-18T14:47:40;12.80;92.30
820;DHT22;392;48.838;2.322;2023-11-18T14:50:11;12.80;92.70
820;DHT22;392;48.838;2.322;2023-11-18T14:52:45;12.80;93.00
820;DHT22;392;48.838;2.322;2023-11-18T14:55:13;12.80;93.30
820;DHT22;392;48.838;2.322;2023-11-18T14:57:43;12.80;93.70
820;DHT22;392;48.838;2.322;2023-11-18T15:00:11;12.80;93.90
820;DHT22;392;48.838;2.322;2023-11-18T15:02:46;12.80;94.20
820;DHT22;392;48.838;2.322;2023-11-18T15:05:14;12.80;94.50
820;DHT22;392;48.838;2.322;2023-11-18T15:07:46;12.80;94.60
820;DHT22;392;48.838;2.322;2023-11-18T15:10:17;12.80;94.90
820;DHT22;392;48.838;2.322;2023-11-18T15:12:47;12.90;95.00
820;DHT22;392;48.838;2.322;2023-11-18T15:15:16;12.90;95.20
820;DHT22;392;48.838;2.322;2023-11-18T15:17:45;12.90;95.20
820;DHT22;392;48.838;2.322;2023-11-18T15:20:14;12.90;95.40
820;DHT22;392;48.838;2.322;2023-11-18T15:22:43;12.90;95.50
820;DHT22;392;48.838;2.322;2023-11-18T15:25:12;12.90;95.60
820;DHT22;392;48.838;2.322;2023-11-18T15:27:41;12.90;95.80
820;DHT22;392;48.838;2.322;2023-11-18T15:30:09;12.90;95.90
820;DHT22;392;48.838;2.322;2023-11-18T15:32:38;12.90;95.90
820;DHT22;392;48.838;2.322;2023-11-18T15:35:07;12.90;95.90
820;DHT22;392;48.838;2.322;2023-11-18T15:37:40;12.90;96.00
820;DHT22;392;48.838;2.322;2023-11-18T15:40:10;12.90;96.30
820;DHT22;392;48.838;2.322;2023-11-18T15:42:40;12.90;96.40
820;DHT22;392;48.838;2.322;2023-11-18T15:45:09;12.90;96.40
820;DHT22;392;48.838;2.322;2023-11-18T15:47:38;13.00;96.70
820;DHT22;392;48.838;2.322;2023-11-18T15:50:09;13.00;96.90
820;DHT22;392;48.838;2.322;2023-11-18T15:52:41;13.00;97.10
820;DHT22;392;48.838;2.322;2023-11-18T15:55:11;13.10;97.30
820;DHT22;392;48.838;2.322;2023-11-18T15:57:40;13.10;97.50
820;DHT22;392;48.838;2.322;2023-11-18T16:00:09;13.20;97.70
820;DHT22;392;48.838;2.322;2023-11-18T16:02:42;13.20;97.90
820;DHT22;392;48.838;2.322;2023-11-18T16:05:12;13.30;97.90
820;DHT22;392;48.838;2.322;2023-11-18T16:07:41;13.30;97.90
820;DHT22;392;48.838;2.322;2023-11-18T16:10:11;13.30;97.80
820;DHT22;392;48.838;2.322;2023-11-18T16:12:44;13.30;98.00
820;DHT22;392;48.838;2.322;2023-11-18T16:15:13;13.30;97.80
820;DHT22;392;48.838;2.322;2023-11-18T16:17:41;13.30;97.90
820;DHT22;392;48.838;2.322;2023-11-18T16:20:12;13.30;97.70
820;DHT22;392;48.838;2.322;2023-11-18T16:22:40;13.30;97.70
820;DHT22;392;48.838;2.322;2023-11-18T16:25:08;13.30;97.70
820;DHT22;392;48.838;2.322;2023-11-18T16:27:37;13.30;97.90
820;DHT22;392;48.838;2.322;2023-11-18T16:30:06;13.30;97.70
820;DHT22;392;48.838;2.322;2023-11-18T16:32:33;13.40;97.80
820;DHT22;392;48.838;2.322;2023-11-18T16:35:01;13.40;97.80
820;DHT22;392;48.838;2.322;2023-11-18T16:37:29;13.40;97.90
820;DHT22;392;48.838;2.322;2023-11-18T16:39:57;13.40;98.00
820;DHT22;392;48.838;2.322;2023-11-18T16:42:24;13.50;98.10
820;DHT22;392;48.838;2.322;2023-11-18T16:44:55;13.50;98.10
820;DHT22;392;48.838;2.322;2023-11-18T16:47:22;13.50;98.10
820;DHT22;392;48.838;2.322;2023-11-18T16:49:50;13.60;98.10
820;DHT22;392;48.838;2.322;2023-11-18T16:52:17;13.60;98.10
820;DHT22;392;48.838;2.322;2023-11-18T16:54:46;13.70;98.10
820;DHT22;392;48.838;2.322;2023-11-18T16:57:13;13.70;98.00